sensor_id;sensor_type;location;lat;lon;timestamp;P1;durP1;ratioP1;P2;durP2;ratioP2
41693;SDS011;27377;50.666;9.150;2022-08-19T00:00:24;28.52;;;22.38;;
41693;SDS011;27377;50.666;9.150;2022-08-19T00:02:50;27.00;;;21.80;;
41693;SDS011;27377;50.666;9.150;2022-08-19T00:05:16;29.35;;;22.80;;
41693;SDS011;27377;50.666;9.150;2022-08-19T00:07:43;29.60;;;23.17;;
41693;SDS011;27377;50.666;9.150;2022-08-19T00:10:09;29.13;;;23.02;;
41693;SDS011;27377;50.666;9.150;2022-08-19T00:12:38;30.98;;;23.48;;
41693;SDS011;27377;50.666;9.150;2022-08-19T00:15:05;31.25;;;23.55;;
41693;SDS011;27377;50.666;9.150;2022-08-19T00:17:41;30.77;;;23.38;;
41693;SDS011;27377;50.666;9.150;2022-08-19T00:20:09;30.50;;;23.02;;
41693;SDS011;27377;50.666;9.150;2022-08-19T00:22:37;30.27;;;22.70;;
41693;SDS011;27377;50.666;9.150;2022-08-19T00:25:03;30.60;;;23.17;;
41693;SDS011;27377;50.666;9.150;2022-08-19T00:27:30;28.95;;;22.88;;
41693;SDS011;27377;50.666;9.150;2022-08-19T00:29:56;30.50;;;23.35;;
41693;SDS011;27377;50.666;9.150;2022-08-19T00:32:21;31.33;;;23.33;;
41693;SDS011;27377;50.666;9.150;2022-08-19T00:34:47;30.83;;;23.02;;
41693;SDS011;27377;50.666;9.150;2022-08-19T00:37:12;29.85;;;22.70;;
41693;SDS011;27377;50.666;9.150;2022-08-19T00:39:38;28.53;;;22.40;;
41693;SDS011;27377;50.666;9.150;2022-08-19T00:42:04;28.63;;;21.90;;
41693;SDS011;27377;50.666;9.150;2022-08-19T00:44:31;28.27;;;22.40;;
41693;SDS011;27377;50.666;9.150;2022-08-19T00:46:57;28.80;;;22.75;;
41693;SDS011;27377;50.666;9.150;2022-08-19T00:49:37;29.65;;;23.25;;
41693;SDS011;27377;50.666;9.150;2022-08-19T00:52:07;29.73;;;23.10;;
41693;SDS011;27377;50.666;9.150;2022-08-19T00:54:37;33.85;;;23.27;;
41693;SDS011;27377;50.666;9.150;2022-08-19T00:57:04;28.75;;;22.35;;
41693;SDS011;27377;50.666;9.150;2022-08-19T00:59:33;28.25;;;22.27;;
41693;SDS011;27377;50.666;9.150;2022-08-19T01:02:01;27.98;;;21.75;;
41693;SDS011;27377;50.666;9.150;2022-08-19T01:04:27;29.15;;;21.88;;
41693;SDS011;27377;50.666;9.150;2022-08-19T01:06:53;27.60;;;21.83;;
41693;SDS011;27377;50.666;9.150;2022-08-19T01:09:18;27.93;;;21.83;;
41693;SDS011;27377;50.666;9.150;2022-08-19T01:11:44;27.90;;;21.80;;
41693;SDS011;27377;50.666;9.150;2022-08-19T01:14:09;29.53;;;21.87;;
41693;SDS011;27377;50.666;9.150;2022-08-19T01:16:36;30.30;;;22.77;;
41693;SDS011;27377;50.666;9.150;2022-08-19T01:19:04;28.25;;;22.10;;
41693;SDS011;27377;50.666;9.150;2022-08-19T01:22:06;27.25;;;21.58;;
41693;SDS011;27377;50.666;9.150;2022-08-19T01:24:37;28.63;;;22.10;;
41693;SDS011;27377;50.666;9.150;2022-08-19T01:27:04;29.77;;;22.33;;
41693;SDS011;27377;50.666;9.150;2022-08-19T01:29:30;27.55;;;22.60;;
41693;SDS011;27377;50.666;9.150;2022-08-19T01:31:55;27.70;;;22.25;;
41693;SDS011;27377;50.666;9.150;2022-08-19T01:34:22;28.67;;;22.58;;
41693;SDS011;27377;50.666;9.150;2022-08-19T01:36:48;28.20;;;22.23;;
41693;SDS011;27377;50.666;9.150;2022-08-19T01:39:19;28.67;;;22.77;;
41693;SDS011;27377;50.666;9.150;2022-08-19T01:41:47;30.20;;;22.60;;
41693;SDS011;27377;50.666;9.150;2022-08-19T01:44:13;31.08;;;23.20;;
41693;SDS011;27377;50.666;9.150;2022-08-19T01:46:39;30.42;;;23.45;;
41693;SDS011;27377;50.666;9.150;2022-08-19T01:49:06;28.85;;;22.45;;
41693;SDS011;27377;50.666;9.150;2022-08-19T01:51:32;29.98;;;22.77;;
41693;SDS011;27377;50.666;9.150;2022-08-19T01:53:58;33.87;;;23.17;;
41693;SDS011;27377;50.666;9.150;2022-08-19T01:56:24;30.35;;;23.00;;
41693;SDS011;27377;50.666;9.150;2022-08-19T01:58:52;29.98;;;23.15;;
41693;SDS011;27377;50.666;9.150;2022-08-19T02:01:24;32.30;;;23.90;;
41693;SDS011;27377;50.666;9.150;2022-08-19T02:03:50;31.37;;;22.97;;
41693;SDS011;27377;50.666;9.150;2022-08-19T02:06:18;28.93;;;22.90;;
41693;SDS011;27377;50.666;9.150;2022-08-19T02:08:44;31.95;;;23.60;;
41693;SDS011;27377;50.666;9.150;2022-08-19T02:11:17;28.20;;;22.20;;
41693;SDS011;27377;50.666;9.150;2022-08-19T02:13:45;28.70;;;22.50;;
41693;SDS011;27377;50.666;9.150;2022-08-19T02:16:11;30.47;;;22.63;;
41693;SDS011;27377;50.666;9.150;2022-08-19T02:18:36;27.73;;;22.17;;
41693;SDS011;27377;50.666;9.150;2022-08-19T02:21:02;29.30;;;22.47;;
41693;SDS011;27377;50.666;9.150;2022-08-19T02:23:27;29.70;;;22.37;;
41693;SDS011;27377;50.666;9.150;2022-08-19T02:25:53;28.63;;;22.63;;
41693;SDS011;27377;50.666;9.150;2022-08-19T02:28:18;28.40;;;22.37;;
41693;SDS011;27377;50.666;9.150;2022-08-19T02:30:45;27.80;;;22.10;;
41693;SDS011;27377;50.666;9.150;2022-08-19T02:33:11;27.85;;;21.98;;
41693;SDS011;27377;50.666;9.150;2022-08-19T02:35:40;32.13;;;23.50;;
41693;SDS011;27377;50.666;9.150;2022-08-19T02:38:07;28.40;;;22.45;;
41693;SDS011;27377;50.666;9.150;2022-08-19T02:40:52;31.05;;;23.75;;
41693;SDS011;27377;50.666;9.150;2022-08-19T02:43:20;30.25;;;23.17;;
41693;SDS011;27377;50.666;9.150;2022-08-19T02:45:47;30.58;;;22.95;;
41693;SDS011;27377;50.666;9.150;2022-08-19T02:48:14;29.85;;;23.25;;
41693;SDS011;27377;50.666;9.150;2022-08-19T02:50:42;29.27;;;22.85;;
41693;SDS011;27377;50.666;9.150;2022-08-19T02:53:08;31.27;;;23.40;;
41693;SDS011;27377;50.666;9.150;2022-08-19T02:55:34;30.60;;;22.88;;
41693;SDS011;27377;50.666;9.150;2022-08-19T02:58:00;31.35;;;23.60;;
41693;SDS011;27377;50.666;9.150;2022-08-19T03:00:26;30.40;;;23.13;;
41693;SDS011;27377;50.666;9.150;2022-08-19T03:02:52;31.85;;;23.45;;
41693;SDS011;27377;50.666;9.150;2022-08-19T03:05:18;29.08;;;21.85;;
41693;SDS011;27377;50.666;9.150;2022-08-19T03:07:44;28.13;;;21.77;;
41693;SDS011;27377;50.666;9.150;2022-08-19T03:10:11;30.08;;;22.30;;
41693;SDS011;27377;50.666;9.150;2022-08-19T03:12:38;29.02;;;22.42;;
41693;SDS011;27377;50.666;9.150;2022-08-19T03:15:04;27.75;;;21.48;;
41693;SDS011;27377;50.666;9.150;2022-08-19T03:17:33;29.38;;;22.30;;
41693;SDS011;27377;50.666;9.150;2022-08-19T03:19:59;29.00;;;22.65;;
41693;SDS011;27377;50.666;9.150;2022-08-19T03:22:24;27.33;;;21.30;;
41693;SDS011;27377;50.666;9.150;2022-08-19T03:24:50;27.33;;;21.77;;
41693;SDS011;27377;50.666;9.150;2022-08-19T03:27:16;29.38;;;22.90;;
41693;SDS011;27377;50.666;9.150;2022-08-19T03:29:42;29.70;;;22.88;;
41693;SDS011;27377;50.666;9.150;2022-08-19T03:32:08;29.83;;;22.70;;
41693;SDS011;27377;50.666;9.150;2022-08-19T03:34:34;29.75;;;23.00;;
41693;SDS011;27377;50.666;9.150;2022-08-19T03:37:07;30.40;;;23.42;;
41693;SDS011;27377;50.666;9.150;2022-08-19T03:39:35;32.67;;;24.23;;
41693;SDS011;27377;50.666;9.150;2022-08-19T03:42:03;32.37;;;24.00;;
41693;SDS011;27377;50.666;9.150;2022-08-19T03:44:29;30.10;;;23.60;;
41693;SDS011;27377;50.666;9.150;2022-08-19T03:46:57;28.83;;;23.05;;
41693;SDS011;27377;50.666;9.150;2022-08-19T03:49:25;28.05;;;22.30;;
41693;SDS011;27377;50.666;9.150;2022-08-19T03:51:53;27.63;;;22.25;;
41693;SDS011;27377;50.666;9.150;2022-08-19T03:54:22;29.35;;;22.35;;
41693;SDS011;27377;50.666;9.150;2022-08-19T03:56:49;27.92;;;22.23;;
41693;SDS011;27377;50.666;9.150;2022-08-19T03:59:20;29.65;;;22.55;;
41693;SDS011;27377;50.666;9.150;2022-08-19T04:01:53;28.83;;;22.38;;
41693;SDS011;27377;50.666;9.150;2022-08-19T04:04:22;31.27;;;23.52;;
41693;SDS011;27377;50.666;9.150;2022-08-19T04:06:48;31.60;;;23.90;;
41693;SDS011;27377;50.666;9.150;2022-08-19T04:09:16;30.13;;;23.67;;
41693;SDS011;27377;50.666;9.150;2022-08-19T04:11:45;29.70;;;22.70;;
41693;SDS011;27377;50.666;9.150;2022-08-19T04:14:18;29.45;;;23.42;;
41693;SDS011;27377;50.666;9.150;2022-08-19T04:16:45;31.38;;;23.55;;
41693;SDS011;27377;50.666;9.150;2022-08-19T04:19:12;31.02;;;23.60;;
41693;SDS011;27377;50.666;9.150;2022-08-19T04:21:39;30.23;;;23.33;;
41693;SDS011;27377;50.666;9.150;2022-08-19T04:24:05;31.60;;;23.63;;
41693;SDS011;27377;50.666;9.150;2022-08-19T04:26:32;29.20;;;22.40;;
41693;SDS011;27377;50.666;9.150;2022-08-19T04:29:00;28.73;;;22.30;;
41693;SDS011;27377;50.666;9.150;2022-08-19T04:31:29;27.70;;;22.27;;
41693;SDS011;27377;50.666;9.150;2022-08-19T04:33:56;27.97;;;21.93;;
41693;SDS011;27377;50.666;9.150;2022-08-19T04:36:27;27.58;;;22.05;;
41693;SDS011;27377;50.666;9.150;2022-08-19T04:38:55;29.45;;;22.00;;
41693;SDS011;27377;50.666;9.150;2022-08-19T04:41:23;28.77;;;22.70;;
41693;SDS011;27377;50.666;9.150;2022-08-19T04:44:07;28.90;;;21.83;;
41693;SDS011;27377;50.666;9.150;2022-08-19T04:46:33;27.55;;;21.73;;
41693;SDS011;27377;50.666;9.150;2022-08-19T04:49:00;29.98;;;22.13;;
41693;SDS011;27377;50.666;9.150;2022-08-19T04:51:27;28.67;;;22.33;;
41693;SDS011;27377;50.666;9.150;2022-08-19T04:53:56;29.65;;;23.25;;
41693;SDS011;27377;50.666;9.150;2022-08-19T04:56:22;28.52;;;22.38;;
41693;SDS011;27377;50.666;9.150;2022-08-19T04:58:47;31.57;;;23.27;;
41693;SDS011;27377;50.666;9.150;2022-08-19T05:01:21;30.50;;;22.92;;
41693;SDS011;27377;50.666;9.150;2022-08-19T05:03:48;27.48;;;22.10;;
41693;SDS011;27377;50.666;9.150;2022-08-19T05:06:16;27.77;;;21.75;;
41693;SDS011;27377;50.666;9.150;2022-08-19T05:08:44;28.67;;;22.33;;
41693;SDS011;27377;50.666;9.150;2022-08-19T05:13:36;28.17;;;22.05;;
41693;SDS011;27377;50.666;9.150;2022-08-19T05:16:02;28.42;;;22.60;;
41693;SDS011;27377;50.666;9.150;2022-08-19T05:18:28;28.65;;;21.70;;
41693;SDS011;27377;50.666;9.150;2022-08-19T05:21:13;28.20;;;21.42;;
41693;SDS011;27377;50.666;9.150;2022-08-19T05:23:58;25.63;;;20.40;;
41693;SDS011;27377;50.666;9.150;2022-08-19T05:26:24;25.57;;;20.47;;
41693;SDS011;27377;50.666;9.150;2022-08-19T05:28:51;26.80;;;20.60;;
41693;SDS011;27377;50.666;9.150;2022-08-19T05:31:18;26.55;;;20.75;;
41693;SDS011;27377;50.666;9.150;2022-08-19T05:33:44;25.88;;;20.33;;
41693;SDS011;27377;50.666;9.150;2022-08-19T05:36:09;27.20;;;20.63;;
41693;SDS011;27377;50.666;9.150;2022-08-19T05:38:35;24.92;;;20.42;;
41693;SDS011;27377;50.666;9.150;2022-08-19T05:41:05;26.80;;;20.00;;
41693;SDS011;27377;50.666;9.150;2022-08-19T05:43:33;26.20;;;20.77;;
41693;SDS011;27377;50.666;9.150;2022-08-19T05:45:59;27.70;;;21.00;;
41693;SDS011;27377;50.666;9.150;2022-08-19T05:48:24;27.67;;;21.83;;
41693;SDS011;27377;50.666;9.150;2022-08-19T05:50:51;26.00;;;21.10;;
41693;SDS011;27377;50.666;9.150;2022-08-19T05:53:17;29.50;;;22.20;;
41693;SDS011;27377;50.666;9.150;2022-08-19T05:55:42;28.10;;;22.02;;
41693;SDS011;27377;50.666;9.150;2022-08-19T05:58:08;27.97;;;22.33;;
41693;SDS011;27377;50.666;9.150;2022-08-19T06:00:34;27.60;;;22.17;;
41693;SDS011;27377;50.666;9.150;2022-08-19T06:03:00;29.83;;;22.57;;
41693;SDS011;27377;50.666;9.150;2022-08-19T06:05:28;28.60;;;21.45;;
41693;SDS011;27377;50.666;9.150;2022-08-19T06:07:55;28.67;;;22.30;;
41693;SDS011;27377;50.666;9.150;2022-08-19T06:10:21;28.45;;;22.13;;
41693;SDS011;27377;50.666;9.150;2022-08-19T06:12:47;29.25;;;21.88;;
41693;SDS011;27377;50.666;9.150;2022-08-19T06:15:13;26.85;;;21.27;;
41693;SDS011;27377;50.666;9.150;2022-08-19T06:17:40;28.17;;;21.52;;
41693;SDS011;27377;50.666;9.150;2022-08-19T06:20:08;28.85;;;22.13;;
41693;SDS011;27377;50.666;9.150;2022-08-19T06:22:40;29.60;;;20.75;;
41693;SDS011;27377;50.666;9.150;2022-08-19T06:25:07;24.83;;;20.15;;
41693;SDS011;27377;50.666;9.150;2022-08-19T06:27:34;30.83;;;22.23;;
41693;SDS011;27377;50.666;9.150;2022-08-19T06:30:01;26.73;;;21.38;;
41693;SDS011;27377;50.666;9.150;2022-08-19T06:32:28;27.50;;;21.57;;
41693;SDS011;27377;50.666;9.150;2022-08-19T06:34:54;27.53;;;20.97;;
41693;SDS011;27377;50.666;9.150;2022-08-19T06:37:19;26.83;;;20.77;;
41693;SDS011;27377;50.666;9.150;2022-08-19T06:39:46;27.47;;;20.90;;
41693;SDS011;27377;50.666;9.150;2022-08-19T06:42:12;28.00;;;20.33;;
41693;SDS011;27377;50.666;9.150;2022-08-19T06:44:41;23.17;;;19.10;;
41693;SDS011;27377;50.666;9.150;2022-08-19T06:47:10;24.73;;;19.67;;
41693;SDS011;27377;50.666;9.150;2022-08-19T06:49:37;26.58;;;19.83;;
41693;SDS011;27377;50.666;9.150;2022-08-19T06:52:03;25.55;;;18.83;;
41693;SDS011;27377;50.666;9.150;2022-08-19T06:54:30;24.20;;;18.73;;
41693;SDS011;27377;50.666;9.150;2022-08-19T06:56:59;23.00;;;17.35;;
41693;SDS011;27377;50.666;9.150;2022-08-19T06:59:29;22.52;;;17.55;;
41693;SDS011;27377;50.666;9.150;2022-08-19T07:01:58;21.40;;;17.20;;
41693;SDS011;27377;50.666;9.150;2022-08-19T07:04:29;21.33;;;16.33;;
41693;SDS011;27377;50.666;9.150;2022-08-19T07:06:58;23.17;;;16.23;;
41693;SDS011;27377;50.666;9.150;2022-08-19T07:09:33;19.10;;;14.57;;
41693;SDS011;27377;50.666;9.150;2022-08-19T07:12:02;20.73;;;14.70;;
41693;SDS011;27377;50.666;9.150;2022-08-19T07:14:28;20.20;;;14.00;;
41693;SDS011;27377;50.666;9.150;2022-08-19T07:16:54;19.73;;;13.77;;
41693;SDS011;27377;50.666;9.150;2022-08-19T07:19:22;17.27;;;13.20;;
41693;SDS011;27377;50.666;9.150;2022-08-19T07:21:50;17.83;;;12.48;;
41693;SDS011;27377;50.666;9.150;2022-08-19T07:24:19;15.85;;;11.40;;
41693;SDS011;27377;50.666;9.150;2022-08-19T07:26:49;16.55;;;10.93;;
41693;SDS011;27377;50.666;9.150;2022-08-19T07:29:16;14.57;;;10.85;;
41693;SDS011;27377;50.666;9.150;2022-08-19T07:31:43;14.57;;;10.23;;
41693;SDS011;27377;50.666;9.150;2022-08-19T07:34:10;15.27;;;10.20;;
41693;SDS011;27377;50.666;9.150;2022-08-19T07:36:38;15.95;;;10.32;;
41693;SDS011;27377;50.666;9.150;2022-08-19T07:39:08;14.13;;;9.38;;
41693;SDS011;27377;50.666;9.150;2022-08-19T07:41:37;12.00;;;9.18;;
41693;SDS011;27377;50.666;9.150;2022-08-19T07:44:03;13.52;;;9.07;;
41693;SDS011;27377;50.666;9.150;2022-08-19T07:46:31;14.07;;;9.48;;
41693;SDS011;27377;50.666;9.150;2022-08-19T07:48:57;13.05;;;9.18;;
41693;SDS011;27377;50.666;9.150;2022-08-19T07:51:23;13.07;;;9.03;;
41693;SDS011;27377;50.666;9.150;2022-08-19T07:53:48;13.07;;;9.20;;
41693;SDS011;27377;50.666;9.150;2022-08-19T07:56:16;11.57;;;8.83;;
41693;SDS011;27377;50.666;9.150;2022-08-19T07:58:43;12.18;;;8.60;;
41693;SDS011;27377;50.666;9.150;2022-08-19T08:01:11;12.50;;;8.77;;
41693;SDS011;27377;50.666;9.150;2022-08-19T08:03:38;12.88;;;8.30;;
41693;SDS011;27377;50.666;9.150;2022-08-19T08:06:23;11.85;;;8.25;;
41693;SDS011;27377;50.666;9.150;2022-08-19T08:09:08;12.73;;;8.20;;
41693;SDS011;27377;50.666;9.150;2022-08-19T08:11:54;13.50;;;8.13;;
41693;SDS011;27377;50.666;9.150;2022-08-19T08:16:56;11.52;;;7.55;;
41693;SDS011;27377;50.666;9.150;2022-08-19T08:19:22;10.45;;;6.57;;
41693;SDS011;27377;50.666;9.150;2022-08-19T08:21:49;9.77;;;6.60;;
41693;SDS011;27377;50.666;9.150;2022-08-19T08:24:16;9.93;;;6.60;;
41693;SDS011;27377;50.666;9.150;2022-08-19T08:26:42;8.55;;;6.03;;
41693;SDS011;27377;50.666;9.150;2022-08-19T08:29:09;8.43;;;5.68;;
41693;SDS011;27377;50.666;9.150;2022-08-19T08:31:38;8.55;;;5.70;;
41693;SDS011;27377;50.666;9.150;2022-08-19T08:34:08;8.30;;;5.70;;
41693;SDS011;27377;50.666;9.150;2022-08-19T08:36:41;9.07;;;5.70;;
41693;SDS011;27377;50.666;9.150;2022-08-19T08:39:10;8.57;;;5.20;;
41693;SDS011;27377;50.666;9.150;2022-08-19T08:41:54;8.77;;;5.20;;
41693;SDS011;27377;50.666;9.150;2022-08-19T08:44:32;8.45;;;5.15;;
41693;SDS011;27377;50.666;9.150;2022-08-19T08:47:13;9.05;;;5.05;;
41693;SDS011;27377;50.666;9.150;2022-08-19T08:49:56;7.53;;;4.82;;
41693;SDS011;27377;50.666;9.150;2022-08-19T08:52:29;6.72;;;4.75;;
41693;SDS011;27377;50.666;9.150;2022-08-19T08:55:00;8.30;;;4.95;;
41693;SDS011;27377;50.666;9.150;2022-08-19T08:57:33;8.80;;;4.73;;
41693;SDS011;27377;50.666;9.150;2022-08-19T09:00:03;7.68;;;4.20;;
41693;SDS011;27377;50.666;9.150;2022-08-19T09:02:31;6.30;;;4.43;;
41693;SDS011;27377;50.666;9.150;2022-08-19T09:04:57;7.17;;;4.63;;
41693;SDS011;27377;50.666;9.150;2022-08-19T09:10:18;6.18;;;3.90;;
41693;SDS011;27377;50.666;9.150;2022-08-19T09:16:21;7.18;;;3.40;;
41693;SDS011;27377;50.666;9.150;2022-08-19T09:18:49;4.87;;;3.20;;
41693;SDS011;27377;50.666;9.150;2022-08-19T09:21:18;6.35;;;3.10;;
41693;SDS011;27377;50.666;9.150;2022-08-19T09:23:48;5.22;;;3.05;;
41693;SDS011;27377;50.666;9.150;2022-08-19T09:26:16;5.63;;;3.10;;
41693;SDS011;27377;50.666;9.150;2022-08-19T09:28:45;4.38;;;2.97;;
41693;SDS011;27377;50.666;9.150;2022-08-19T09:31:13;6.18;;;2.88;;
41693;SDS011;27377;50.666;9.150;2022-08-19T09:33:40;5.32;;;2.75;;
41693;SDS011;27377;50.666;9.150;2022-08-19T09:36:09;4.93;;;2.50;;
41693;SDS011;27377;50.666;9.150;2022-08-19T09:38:37;4.70;;;2.83;;
41693;SDS011;27377;50.666;9.150;2022-08-19T09:41:07;5.05;;;2.50;;
41693;SDS011;27377;50.666;9.150;2022-08-19T09:43:36;6.32;;;2.80;;
41693;SDS011;27377;50.666;9.150;2022-08-19T09:46:03;5.10;;;2.90;;
41693;SDS011;27377;50.666;9.150;2022-08-19T09:48:31;5.53;;;3.03;;
41693;SDS011;27377;50.666;9.150;2022-08-19T09:51:08;6.10;;;2.80;;
41693;SDS011;27377;50.666;9.150;2022-08-19T09:53:35;6.35;;;3.28;;
41693;SDS011;27377;50.666;9.150;2022-08-19T09:56:01;5.53;;;3.00;;
41693;SDS011;27377;50.666;9.150;2022-08-19T09:58:28;4.70;;;2.90;;
41693;SDS011;27377;50.666;9.150;2022-08-19T10:00:55;5.43;;;2.80;;
41693;SDS011;27377;50.666;9.150;2022-08-19T10:03:21;5.38;;;2.88;;
41693;SDS011;27377;50.666;9.150;2022-08-19T10:05:47;4.47;;;2.60;;
41693;SDS011;27377;50.666;9.150;2022-08-19T10:08:24;5.65;;;2.55;;
41693;SDS011;27377;50.666;9.150;2022-08-19T10:10:51;4.70;;;2.60;;
41693;SDS011;27377;50.666;9.150;2022-08-19T10:13:18;4.40;;;2.50;;
41693;SDS011;27377;50.666;9.150;2022-08-19T10:15:50;3.97;;;2.25;;
41693;SDS011;27377;50.666;9.150;2022-08-19T10:18:17;4.70;;;2.22;;
41693;SDS011;27377;50.666;9.150;2022-08-19T10:20:44;4.00;;;2.30;;
41693;SDS011;27377;50.666;9.150;2022-08-19T10:23:11;3.47;;;2.20;;
41693;SDS011;27377;50.666;9.150;2022-08-19T10:25:37;4.13;;;2.30;;
41693;SDS011;27377;50.666;9.150;2022-08-19T10:28:03;4.33;;;2.40;;
41693;SDS011;27377;50.666;9.150;2022-08-19T10:30:30;4.43;;;2.30;;
41693;SDS011;27377;50.666;9.150;2022-08-19T10:32:55;3.28;;;2.00;;
41693;SDS011;27377;50.666;9.150;2022-08-19T10:35:21;3.80;;;2.07;;
41693;SDS011;27377;50.666;9.150;2022-08-19T10:37:46;3.05;;;1.92;;
41693;SDS011;27377;50.666;9.150;2022-08-19T10:40:12;3.28;;;2.03;;
41693;SDS011;27377;50.666;9.150;2022-08-19T10:42:37;5.55;;;2.17;;
41693;SDS011;27377;50.666;9.150;2022-08-19T10:45:03;3.30;;;1.98;;
41693;SDS011;27377;50.666;9.150;2022-08-19T10:47:31;3.92;;;2.00;;
41693;SDS011;27377;50.666;9.150;2022-08-19T10:49:57;3.73;;;2.10;;
41693;SDS011;27377;50.666;9.150;2022-08-19T10:52:43;4.07;;;1.98;;
41693;SDS011;27377;50.666;9.150;2022-08-19T10:55:10;3.78;;;2.00;;
41693;SDS011;27377;50.666;9.150;2022-08-19T10:57:54;3.00;;;2.10;;
41693;SDS011;27377;50.666;9.150;2022-08-19T11:00:21;3.42;;;2.05;;
41693;SDS011;27377;50.666;9.150;2022-08-19T11:02:48;3.50;;;2.10;;
41693;SDS011;27377;50.666;9.150;2022-08-19T11:05:14;3.50;;;2.10;;
41693;SDS011;27377;50.666;9.150;2022-08-19T11:07:40;3.80;;;2.10;;
41693;SDS011;27377;50.666;9.150;2022-08-19T11:10:06;3.67;;;2.00;;
41693;SDS011;27377;50.666;9.150;2022-08-19T11:12:33;3.67;;;1.85;;
41693;SDS011;27377;50.666;9.150;2022-08-19T11:15:01;4.05;;;2.03;;
41693;SDS011;27377;50.666;9.150;2022-08-19T11:17:26;4.20;;;2.00;;
41693;SDS011;27377;50.666;9.150;2022-08-19T11:19:52;3.77;;;1.90;;
41693;SDS011;27377;50.666;9.150;2022-08-19T11:22:17;3.03;;;2.00;;
41693;SDS011;27377;50.666;9.150;2022-08-19T11:24:43;4.53;;;2.20;;
41693;SDS011;27377;50.666;9.150;2022-08-19T11:27:09;2.83;;;1.90;;
41693;SDS011;27377;50.666;9.150;2022-08-19T11:29:37;4.13;;;1.80;;
41693;SDS011;27377;50.666;9.150;2022-08-19T11:32:04;3.30;;;1.75;;
41693;SDS011;27377;50.666;9.150;2022-08-19T11:34:33;4.95;;;2.00;;
41693;SDS011;27377;50.666;9.150;2022-08-19T11:37:00;4.38;;;1.90;;
41693;SDS011;27377;50.666;9.150;2022-08-19T11:39:28;3.15;;;1.85;;
41693;SDS011;27377;50.666;9.150;2022-08-19T11:41:56;2.97;;;1.90;;
41693;SDS011;27377;50.666;9.150;2022-08-19T11:44:23;4.32;;;1.90;;
41693;SDS011;27377;50.666;9.150;2022-08-19T11:46:49;3.70;;;2.00;;
41693;SDS011;27377;50.666;9.150;2022-08-19T11:49:15;3.40;;;1.98;;
41693;SDS011;27377;50.666;9.150;2022-08-19T11:51:44;3.55;;;1.98;;
41693;SDS011;27377;50.666;9.150;2022-08-19T11:54:11;4.33;;;1.93;;
41693;SDS011;27377;50.666;9.150;2022-08-19T11:56:38;4.13;;;2.03;;
41693;SDS011;27377;50.666;9.150;2022-08-19T11:59:04;3.80;;;1.88;;
41693;SDS011;27377;50.666;9.150;2022-08-19T12:01:30;3.03;;;1.70;;
41693;SDS011;27377;50.666;9.150;2022-08-19T12:03:56;2.88;;;1.88;;
41693;SDS011;27377;50.666;9.150;2022-08-19T12:06:24;2.83;;;1.90;;
41693;SDS011;27377;50.666;9.150;2022-08-19T12:08:58;3.10;;;1.85;;
41693;SDS011;27377;50.666;9.150;2022-08-19T12:11:26;4.25;;;1.80;;
41693;SDS011;27377;50.666;9.150;2022-08-19T12:13:52;3.67;;;1.90;;
41693;SDS011;27377;50.666;9.150;2022-08-19T12:16:20;3.00;;;1.70;;
41693;SDS011;27377;50.666;9.150;2022-08-19T12:18:48;4.45;;;1.90;;
41693;SDS011;27377;50.666;9.150;2022-08-19T12:21:16;4.10;;;1.90;;
41693;SDS011;27377;50.666;9.150;2022-08-19T12:23:47;3.20;;;2.03;;
41693;SDS011;27377;50.666;9.150;2022-08-19T12:26:14;3.65;;;2.25;;
41693;SDS011;27377;50.666;9.150;2022-08-19T12:28:41;3.10;;;1.97;;
41693;SDS011;27377;50.666;9.150;2022-08-19T12:31:07;2.92;;;1.95;;
41693;SDS011;27377;50.666;9.150;2022-08-19T12:33:36;3.25;;;1.90;;
41693;SDS011;27377;50.666;9.150;2022-08-19T12:36:03;4.25;;;2.00;;
41693;SDS011;27377;50.666;9.150;2022-08-19T12:38:31;2.75;;;1.90;;
41693;SDS011;27377;50.666;9.150;2022-08-19T12:40:59;3.05;;;2.00;;
41693;SDS011;27377;50.666;9.150;2022-08-19T12:43:25;4.95;;;2.20;;
41693;SDS011;27377;50.666;9.150;2022-08-19T12:45:51;2.90;;;1.80;;
41693;SDS011;27377;50.666;9.150;2022-08-19T12:48:16;3.33;;;2.17;;
41693;SDS011;27377;50.666;9.150;2022-08-19T12:50:43;3.97;;;1.92;;
41693;SDS011;27377;50.666;9.150;2022-08-19T12:53:12;7.40;;;2.28;;
41693;SDS011;27377;50.666;9.150;2022-08-19T12:55:38;3.70;;;2.05;;
41693;SDS011;27377;50.666;9.150;2022-08-19T12:58:04;3.92;;;2.05;;
41693;SDS011;27377;50.666;9.150;2022-08-19T13:00:29;3.03;;;1.90;;
41693;SDS011;27377;50.666;9.150;2022-08-19T13:02:57;4.70;;;2.07;;
41693;SDS011;27377;50.666;9.150;2022-08-19T13:05:25;4.32;;;2.08;;
41693;SDS011;27377;50.666;9.150;2022-08-19T13:07:53;3.63;;;1.90;;
41693;SDS011;27377;50.666;9.150;2022-08-19T13:10:25;3.78;;;1.90;;
41693;SDS011;27377;50.666;9.150;2022-08-19T13:12:59;3.60;;;2.07;;
41693;SDS011;27377;50.666;9.150;2022-08-19T13:15:26;3.60;;;2.15;;
41693;SDS011;27377;50.666;9.150;2022-08-19T13:17:53;4.07;;;2.05;;
41693;SDS011;27377;50.666;9.150;2022-08-19T13:20:20;3.85;;;2.20;;
41693;SDS011;27377;50.666;9.150;2022-08-19T13:22:46;3.30;;;2.08;;
41693;SDS011;27377;50.666;9.150;2022-08-19T13:25:13;4.90;;;2.17;;
41693;SDS011;27377;50.666;9.150;2022-08-19T13:27:42;3.95;;;2.17;;
41693;SDS011;27377;50.666;9.150;2022-08-19T13:30:09;4.22;;;2.10;;
41693;SDS011;27377;50.666;9.150;2022-08-19T13:33:02;4.07;;;2.20;;
41693;SDS011;27377;50.666;9.150;2022-08-19T13:35:57;3.13;;;2.10;;
41693;SDS011;27377;50.666;9.150;2022-08-19T13:38:25;3.65;;;2.10;;
41693;SDS011;27377;50.666;9.150;2022-08-19T13:40:53;5.13;;;2.05;;
41693;SDS011;27377;50.666;9.150;2022-08-19T13:43:20;3.63;;;2.10;;
41693;SDS011;27377;50.666;9.150;2022-08-19T13:45:47;3.33;;;2.00;;
41693;SDS011;27377;50.666;9.150;2022-08-19T13:48:13;3.73;;;2.10;;
41693;SDS011;27377;50.666;9.150;2022-08-19T13:50:40;4.90;;;2.23;;
41693;SDS011;27377;50.666;9.150;2022-08-19T13:53:08;3.60;;;2.28;;
41693;SDS011;27377;50.666;9.150;2022-08-19T13:55:35;3.80;;;2.30;;
41693;SDS011;27377;50.666;9.150;2022-08-19T13:58:03;4.57;;;2.33;;
41693;SDS011;27377;50.666;9.150;2022-08-19T14:00:31;3.63;;;2.10;;
41693;SDS011;27377;50.666;9.150;2022-08-19T14:02:59;3.55;;;2.15;;
41693;SDS011;27377;50.666;9.150;2022-08-19T14:05:25;3.30;;;2.10;;
41693;SDS011;27377;50.666;9.150;2022-08-19T14:07:52;3.47;;;2.13;;
41693;SDS011;27377;50.666;9.150;2022-08-19T14:10:18;4.40;;;2.10;;
41693;SDS011;27377;50.666;9.150;2022-08-19T14:12:44;3.75;;;2.20;;
41693;SDS011;27377;50.666;9.150;2022-08-19T14:15:10;3.23;;;2.20;;
41693;SDS011;27377;50.666;9.150;2022-08-19T14:17:37;3.53;;;2.30;;
41693;SDS011;27377;50.666;9.150;2022-08-19T14:20:05;3.35;;;2.10;;
41693;SDS011;27377;50.666;9.150;2022-08-19T14:22:34;4.63;;;2.40;;
41693;SDS011;27377;50.666;9.150;2022-08-19T14:25:01;3.65;;;2.30;;
41693;SDS011;27377;50.666;9.150;2022-08-19T14:27:27;3.27;;;2.37;;
41693;SDS011;27377;50.666;9.150;2022-08-19T14:29:52;3.60;;;2.23;;
41693;SDS011;27377;50.666;9.150;2022-08-19T14:32:18;4.50;;;2.28;;
41693;SDS011;27377;50.666;9.150;2022-08-19T14:34:44;3.10;;;2.08;;
41693;SDS011;27377;50.666;9.150;2022-08-19T14:37:12;3.50;;;2.20;;
41693;SDS011;27377;50.666;9.150;2022-08-19T14:39:39;4.13;;;2.20;;
41693;SDS011;27377;50.666;9.150;2022-08-19T14:42:09;3.45;;;2.10;;
41693;SDS011;27377;50.666;9.150;2022-08-19T14:44:35;3.92;;;2.10;;
41693;SDS011;27377;50.666;9.150;2022-08-19T14:47:01;3.90;;;2.20;;
41693;SDS011;27377;50.666;9.150;2022-08-19T14:49:27;3.53;;;2.13;;